This is the latest recevied weather packets stored in our database for station/object WMKP. If no packets are shown the sender has not sent any weather packets the latest 10 day(s).
| Time | Temp. | Humidity | Pressure | Rain* | Wind** | Luminosity | Snow |
|---|---|---|---|---|---|---|---|
| 1777668002 | 25.56° C | 94% | 1007 hPa | - | - | - | - |
| 1777666215 | 25.56° C | 94% | 1007 hPa | - | - | - | - |
| 1777664399 | 25.56° C | 94% | 1008 hPa | - | - | - | - |
| 1777662616 | 25.56° C | 94% | 1008 hPa | - | - | - | - |
| 1777660798 | 25.56° C | 94% | 1009 hPa | - | - | - | - |
| 1777659016 | 25.56° C | 94% | 1009 hPa | - | - | - | - |
| 1777657198 | 26.67° C | 88% | 1009 hPa | - | - | - | - |
| 1777655425 | 26.67° C | 88% | 1009 hPa | - | - | - | - |
| 1777653601 | 26.67° C | 88% | 1009 hPa | - | - | - | - |
| 1777651817 | 26.67° C | 88% | 1009 hPa | - | - | - | - |
| 1777649997 | 26.67° C | 88% | 1009 hPa | - | - | - | - |
| 1777648791 | 26.67° C | 88% | 1009 hPa | - | - | - | - |
| 1777646397 | 26.67° C | 88% | 1009 hPa | - | - | - | - |
| 1777644615 | 26.67° C | 88% | 1009 hPa | - | - | - | - |
| 1777642800 | 25.56° C | 88% | 1009 hPa | - | - | - | - |
| 1777641021 | 25.56° C | 88% | 1008 hPa | - | - | - | - |
| 1777639200 | 25° C | 88% | 1008 hPa | - | - | - | - |
| 1777637416 | 25.56° C | 83% | 1008 hPa | - | - | - | - |
| 1777635597 | 25.56° C | 88% | 1007 hPa | - | - | - | - |
| 1777634990 | 27.78° C | 78% | 1007 hPa | - | - | - | - |
| 1777633815 | 30° C | 70% | 1007 hPa | - | - | - | - |
| 1777631998 | 30° C | 70% | 1007 hPa | - | - | - | - |
| 1777630223 | 30° C | 74% | 1006 hPa | - | - | - | - |
| 1777628400 | 30.56° C | 70% | 1006 hPa | - | - | - | - |
| 1777626624 | 30.56° C | 66% | 1006 hPa | - | - | - | - |
* Rain since midnight (hover to see other rain measurements)
** Current wind speed in m/s (hover to see current wind gust speed)